Time;durP1;ratioP1;P1;durP2;ratioP2;P2;SDS_P1;SDS_P2;PMS_P1;PMS_P2;Temp;Humidity;BMP_temperature;BMP_pressure;BME280_temperature;BME280_humidity;BME280_pressure;Samples;Min_cycle;Max_cycle;Signal;HPM_P1;HPM_P2
2021/11/14 00:00:18;;;;;;;;;9.75;8.25;;;;;10.97;76.31;100663.91;5036485;28;45244;-78
2021/11/14 00:02:44;;;;;;;;;8.50;8.50;;;;;10.97;75.99;100659.44;5036499;28;45253;-77
2021/11/14 00:05:10;;;;;;;;;10.00;9.00;;;;;10.98;76.12;100662.97;5036494;28;45245;-78
2021/11/14 00:07:35;;;;;;;;;12.25;9.75;;;;;10.97;76.21;100667.41;5036314;28;45495;-78
2021/11/14 00:10:01;;;;;;;;;11.00;9.50;;;;;10.98;76.53;100665.63;5036123;28;45207;-78
2021/11/14 00:12:26;;;;;;;;;9.75;9.00;;;;;10.95;76.35;100666.66;5036185;28;45223;-78
2021/11/14 00:14:52;;;;;;;;;8.00;8.00;;;;;10.90;76.49;100654.53;5036349;28;46479;-78
2021/11/14 00:17:18;;;;;;;;;9.25;8.00;;;;;10.97;75.98;100662.09;5036133;28;45316;-78
2021/11/14 00:19:44;;;;;;;;;9.25;8.00;;;;;10.99;76.05;100664.69;5036443;28;45217;-78
2021/11/14 00:22:09;;;;;;;;;10.00;9.00;;;;;10.99;75.99;100660.22;5036229;28;45183;-78
2021/11/14 00:24:34;;;;;;;;;7.00;6.75;;;;;10.98;76.39;100662.97;5034776;28;48429;-78
2021/11/14 00:27:00;;;;;;;;;6.50;6.50;;;;;10.98;76.01;100660.31;5036175;28;45204;-78
2021/11/14 00:29:26;;;;;;;;;6.50;6.50;;;;;10.98;76.52;100662.97;5035901;28;45329;-78
2021/11/14 00:31:51;;;;;;;;;6.50;6.50;;;;;10.95;76.11;100660.50;5036249;28;45246;-78
2021/11/14 00:34:17;;;;;;;;;7.75;7.75;;;;;10.98;76.33;100661.16;5037854;28;45266;-78
2021/11/14 00:36:43;;;;;;;;;8.50;8.25;;;;;10.96;76.15;100663.06;5039799;28;45251;-78
2021/11/14 00:39:16;;;;;;;;;9.00;7.75;;;;;10.98;76.19;100662.97;5039753;28;45305;-78
2021/11/14 00:41:43;;;;;;;;;9.25;8.75;;;;;10.97;76.30;100662.09;5039658;28;45242;-78
2021/11/14 00:44:09;;;;;;;;;7.50;7.50;;;;;10.97;76.26;100655.91;5039491;28;45566;-78
2021/11/14 00:46:35;;;;;;;;;8.25;7.75;;;;;10.93;76.23;100657.03;5039619;28;45229;-78
2021/11/14 00:49:00;;;;;;;;;10.00;8.75;;;;;10.95;76.38;100657.81;5039728;28;45273;-78
2021/11/14 00:51:30;;;;;;;;;7.00;7.00;;;;;10.94;76.25;100656.94;5039650;28;45230;-78
2021/11/14 00:53:57;;;;;;;;;8.25;7.50;;;;;10.92;76.30;100661.50;5039368;28;46370;-78
2021/11/14 00:56:22;;;;;;;;;11.50;9.00;;;;;10.91;76.44;100662.44;5039448;28;45623;-77
2021/11/14 00:58:48;;;;;;;;;12.50;10.50;;;;;10.91;76.38;100661.59;5039525;28;45401;-78
2021/11/14 01:01:14;;;;;;;;;9.00;8.00;;;;;10.86;76.66;100656.53;5039410;28;45292;-78
2021/11/14 01:03:39;;;;;;;;;8.00;8.00;;;;;10.87;76.41;100656.44;5039209;28;45951;-78
2021/11/14 01:06:05;;;;;;;;;10.50;8.25;;;;;10.84;76.92;100656.59;5039218;28;45212;-78
2021/11/14 01:08:30;;;;;;;;;10.50;7.75;;;;;10.79;76.84;100640.03;5039341;28;45241;-78
2021/11/14 01:10:58;;;;;;;;;9.00;7.50;;;;;10.84;76.53;100656.59;5039313;28;45173;-78
2021/11/14 01:13:23;;;;;;;;;5.25;5.25;;;;;10.85;76.64;100660.13;5039054;28;45214;-78
2021/11/14 01:15:50;;;;;;;;;7.00;7.00;;;;;10.85;76.70;100662.78;5038961;28;45166;-78
2021/11/14 01:18:18;;;;;;;;;8.00;6.75;;;;;10.81;76.63;100653.25;5038777;28;45206;-78
2021/11/14 01:20:46;;;;;;;;;6.75;6.50;;;;;10.87;76.80;100658.22;5039140;28;45282;-78
2021/11/14 01:23:12;;;;;;;;;7.75;7.00;;;;;10.86;76.76;100662.69;5038786;28;45238;-78
2021/11/14 01:25:39;;;;;;;;;9.50;7.00;;;;;10.87;76.76;100659.09;5038788;28;45575;-78
2021/11/14 01:28:04;;;;;;;;;6.50;5.25;;;;;10.86;76.28;100661.84;5039021;28;45134;-77
2021/11/14 01:30:33;;;;;;;;;6.25;5.25;;;;;10.84;76.71;100656.59;5038739;28;45223;-78
2021/11/14 01:33:01;;;;;;;;;6.00;4.00;;;;;10.86;76.54;100659.19;5038700;28;45428;-78
2021/11/14 01:35:27;;;;;;;;;4.75;4.75;;;;;10.86;76.76;100659.19;5037352;28;45227;-78
2021/11/14 01:37:53;;;;;;;;;5.00;4.50;;;;;10.87;76.64;100651.13;5038833;28;45218;-78
2021/11/14 01:40:25;;;;;;;;;5.75;4.00;;;;;10.79;76.36;100648.03;5037468;28;45196;-78
2021/11/14 01:42:51;;;;;;;;;5.00;4.00;;;;;10.85;76.59;100663.63;5038587;28;45352;-78
2021/11/14 01:45:18;;;;;;;;;5.00;4.25;;;;;10.85;76.65;100663.63;5037545;28;45266;-78
2021/11/14 01:47:44;;;;;;;;;4.75;4.00;;;;;10.87;76.43;100668.88;5038632;28;45274;-78
2021/11/14 01:50:12;;;;;;;;;5.50;4.00;;;;;10.88;76.46;100674.09;5038525;28;45450;-79
2021/11/14 01:52:39;;;;;;;;;3.75;3.25;;;;;10.90;76.49;100668.69;5038354;28;46046;-78
2021/11/14 01:55:05;;;;;;;;;3.50;3.50;;;;;10.89;76.29;100669.66;5038375;28;45285;-78
2021/11/14 01:57:31;;;;;;;;;6.75;5.00;;;;;10.91;76.66;100666.91;5038536;28;45250;-78
2021/11/14 01:59:57;;;;;;;;;4.75;4.75;;;;;10.92;76.22;100668.63;5038256;28;45237;-78
2021/11/14 02:02:22;;;;;;;;;5.00;5.00;;;;;10.92;76.49;100673.97;5038155;28;45214;-78
2021/11/14 02:04:48;;;;;;;;;4.25;2.50;;;;;10.92;76.48;100665.97;5038191;28;45149;-78
2021/11/14 02:07:16;;;;;;;;;4.50;3.50;;;;;10.92;76.33;100673.97;5038264;28;45313;-78
2021/11/14 02:09:42;;;;;;;;;5.50;4.00;;;;;10.90;76.45;100676.69;5038301;28;45273;-78
2021/11/14 02:12:08;;;;;;;;;6.25;4.00;;;;;10.86;76.14;100678.66;5038014;28;46128;-78
2021/11/14 02:14:33;;;;;;;;;7.00;4.25;;;;;10.88;76.35;100675.91;5036840;28;46300;-78
2021/11/14 02:17:00;;;;;;;;;4.75;4.75;;;;;10.87;76.33;100672.41;5038268;28;45556;-78
2021/11/14 02:19:25;;;;;;;;;4.00;4.00;;;;;10.88;76.33;100678.56;5037790;28;45246;-78
2021/11/14 02:21:53;;;;;;;;;7.75;5.00;;;;;10.87;76.30;100669.75;5037642;28;45203;-78
2021/11/14 02:24:19;;;;;;;;;5.00;5.00;;;;;10.86;76.11;100670.69;5037791;28;45218;-78
2021/11/14 02:26:45;;;;;;;;;5.50;5.50;;;;;10.85;76.31;100671.63;5038307;28;45191;-78
2021/11/14 02:29:10;;;;;;;;;6.25;4.50;;;;;10.85;76.20;100668.09;5038142;28;45032;-78
2021/11/14 02:31:36;;;;;;;;;8.75;6.00;;;;;10.88;76.13;100667.94;5037575;28;46276;-78
2021/11/14 02:34:01;;;;;;;;;8.00;7.00;;;;;10.87;76.47;100674.19;5037485;28;45189;-78
2021/11/14 02:36:26;;;;;;;;;6.75;6.25;;;;;10.86;76.65;100670.69;5038145;28;45040;-78
2021/11/14 02:38:52;;;;;;;;;8.50;6.50;;;;;10.83;76.13;100668.19;5037928;28;45225;-78
2021/11/14 02:41:19;;;;;;;;;7.50;6.00;;;;;10.86;76.45;100678.66;5037863;28;45197;-78
2021/11/14 02:43:47;;;;;;;;;6.00;6.00;;;;;10.87;76.50;100674.19;5037680;28;45692;-78
2021/11/14 02:46:13;;;;;;;;;7.00;6.25;;;;;10.88;76.34;100682.09;5038040;28;45166;-78
2021/11/14 02:48:39;;;;;;;;;7.75;6.50;;;;;10.87;76.25;100669.75;5037546;28;45258;-77
2021/11/14 02:51:07;;;;;;;;;8.25;5.75;;;;;10.85;76.50;100663.63;5037638;28;46047;-78
2021/11/14 02:53:33;;;;;;;;;8.00;6.75;;;;;10.91;76.33;100666.91;5037505;28;45201;-77
2021/11/14 02:55:59;;;;;;;;;6.50;6.00;;;;;10.92;76.21;100668.63;5036356;28;45156;-78
2021/11/14 02:58:27;;;;;;;;;7.00;5.75;;;;;10.93;76.24;100667.69;5036262;28;45285;-78
2021/11/14 03:01:00;;;;;;;;;7.75;6.25;;;;;10.94;76.32;100672.91;5037679;28;46004;-77
2021/11/14 03:03:26;;;;;;;;;8.75;6.75;;;;;10.94;76.14;100664.06;5036961;28;45178;-77
2021/11/14 03:05:51;;;;;;;;;5.50;5.50;;;;;10.94;76.22;100666.75;5037484;28;45250;-77
2021/11/14 03:08:17;;;;;;;;;6.00;5.50;;;;;10.94;76.54;100669.41;5037441;28;45173;-77
2021/11/14 03:10:42;;;;;;;;;6.00;5.00;;;;;10.93;76.43;100665.91;5037224;28;45210;-77
2021/11/14 03:13:11;;;;;;;;;9.75;6.25;;;;;10.92;76.48;100660.66;5037131;28;45191;-77
2021/11/14 03:15:40;;;;;;;;;5.00;5.00;;;;;10.93;76.70;100665.91;5036176;28;45253;-77
2021/11/14 03:18:07;;;;;;;;;5.50;5.50;;;;;10.94;76.47;100669.41;5036997;28;45366;-78
2021/11/14 03:20:35;;;;;;;;;6.25;5.50;;;;;10.95;76.35;100671.13;5037139;28;45253;-78
2021/11/14 03:23:01;;;;;;;;;5.00;5.00;;;;;10.94;76.45;100675.56;5037091;28;45646;-78
2021/11/14 03:25:29;;;;;;;;;9.25;8.00;;;;;10.94;76.48;100675.56;5036951;28;45188;-77
2021/11/14 03:27:55;;;;;;;;;7.75;6.50;;;;;10.95;76.54;100671.97;5037072;28;45269;-77
2021/11/14 03:30:22;;;;;;;;;6.25;5.25;;;;;10.96;76.39;100672.81;5037108;28;46117;-78
2021/11/14 03:32:47;;;;;;;;;9.75;6.50;;;;;10.94;76.23;100675.56;5036800;28;45595;-78
2021/11/14 03:35:13;;;;;;;;;9.50;7.25;;;;;10.93;76.44;100678.31;5037042;28;45199;-78
2021/11/14 03:37:39;;;;;;;;;9.00;9.00;;;;;10.92;76.45;100680.13;5036825;28;45172;-78
2021/11/14 03:40:07;;;;;;;;;7.50;7.50;;;;;10.92;76.15;100674.81;5036977;28;45454;-77
2021/11/14 03:42:32;;;;;;;;;7.50;7.50;;;;;10.94;76.42;100675.56;5036603;28;45644;-78
2021/11/14 03:44:58;;;;;;;;;7.00;7.00;;;;;10.96;76.50;100665.72;5036807;28;45496;-78
2021/11/14 03:47:23;;;;;;;;;6.50;6.50;;;;;10.97;76.44;100664.75;5035628;28;45213;-78
2021/11/14 03:49:49;;;;;;;;;8.75;7.00;;;;;10.97;76.51;100666.56;5036431;28;46072;-78
2021/11/14 03:52:14;;;;;;;;;5.25;5.25;;;;;10.99;76.23;100668.19;5036794;28;45234;-76
2021/11/14 03:54:39;;;;;;;;;11.50;8.00;;;;;10.99;76.26;100667.34;5036838;28;45230;-78
2021/11/14 03:57:05;;;;;;;;;8.50;7.75;;;;;10.97;76.38;100671.88;5036837;28;45222;-78
2021/11/14 03:59:33;;;;;;;;;8.00;6.50;;;;;10.97;76.10;100675.41;5036630;28;46261;-78
2021/11/14 04:01:59;;;;;;;;;7.50;7.25;;;;;10.96;76.30;100672.81;5036720;28;45341;-78
2021/11/14 04:04:24;;;;;;;;;9.00;8.50;;;;;10.96;76.54;100667.50;5036202;28;45330;-77
2021/11/14 04:06:49;;;;;;;;;9.25;8.25;;;;;10.99;76.16;100672.69;5036831;28;45147;-77
2021/11/14 04:09:15;;;;;;;;;7.50;7.00;;;;;11.00;76.13;100675.25;5035551;28;46078;-78
2021/11/14 04:11:40;;;;;;;;;10.00;9.00;;;;;10.97;76.09;100670.06;5036435;28;45088;-77
2021/11/14 04:14:05;;;;;;;;;7.50;7.50;;;;;10.99;76.29;100675.34;5036241;28;45206;-78
2021/11/14 04:16:31;;;;;;;;;11.75;9.00;;;;;10.99;76.32;100675.34;5036750;28;45111;-77
2021/11/14 04:18:57;;;;;;;;;8.25;8.00;;;;;10.93;76.36;100673.88;5035871;28;45199;-78
2021/11/14 04:21:22;;;;;;;;;7.50;7.50;;;;;10.92;76.15;100664.16;5036387;28;45160;-77
2021/11/14 04:23:47;;;;;;;;;11.50;7.75;;;;;10.95;76.51;100673.78;5036170;28;45151;-78
2021/11/14 04:26:13;;;;;;;;;7.25;7.25;;;;;10.96;76.13;100668.38;5036573;28;45386;-77
2021/11/14 04:28:40;;;;;;;;;9.75;7.00;;;;;10.95;76.21;100669.31;5035812;28;45322;-77
2021/11/14 04:31:05;;;;;;;;;11.50;7.50;;;;;10.93;76.71;100670.34;5036357;28;45183;-77
2021/11/14 04:33:31;;;;;;;;;9.75;9.00;;;;;10.91;76.35;100681.06;5036003;28;45225;-78
2021/11/14 04:35:57;;;;;;;;;11.50;8.75;;;;;10.87;76.48;100672.41;5036282;28;45398;-77
2021/11/14 04:38:23;;;;;;;;;7.75;7.75;;;;;10.86;76.29;100670.69;5035907;28;45336;-78
2021/11/14 04:40:50;;;;;;;;;10.00;8.00;;;;;10.86;76.54;100672.50;5036012;28;45303;-77
2021/11/14 04:43:17;;;;;;;;;10.50;9.00;;;;;10.84;76.40;100672.56;5036300;28;45151;-77
2021/11/14 04:45:43;;;;;;;;;9.25;6.75;;;;;10.83;76.42;100672.63;5036091;28;45270;-78
2021/11/14 04:48:09;;;;;;;;;8.75;8.25;;;;;10.81;76.59;100670.06;5035811;28;46150;-78
2021/11/14 04:50:35;;;;;;;;;9.00;7.50;;;;;10.81;76.51;100675.38;5035694;28;45649;-78
2021/11/14 04:53:02;;;;;;;;;9.00;7.50;;;;;10.80;76.72;100678.13;5036192;28;45197;-78
2021/11/14 04:55:27;;;;;;;;;11.25;7.75;;;;;10.75;76.68;100666.91;5036055;28;45261;-77
2021/11/14 04:57:53;;;;;;;;;11.00;8.00;;;;;10.76;77.06;100671.25;5035647;28;45171;-77
2021/11/14 05:00:22;;;;;;;;;7.00;6.50;;;;;10.78;77.04;100675.56;5035892;28;45258;-78
2021/11/14 05:02:48;;;;;;;;;8.50;8.50;;;;;10.79;76.89;100673.75;5035816;28;45222;-78
2021/11/14 05:05:14;;;;;;;;;9.50;6.00;;;;;10.80;76.92;100670.16;5035974;28;45185;-78
2021/11/14 05:07:39;;;;;;;;;10.00;7.50;;;;;10.81;77.07;100669.22;5035556;28;46272;-78
2021/11/14 05:10:05;;;;;;;;;9.00;7.00;;;;;10.79;76.85;100668.41;5035652;28;45249;-78
2021/11/14 05:12:31;;;;;;;;;8.00;7.00;;;;;10.81;77.12;100670.06;5035949;28;45183;-78
2021/11/14 05:14:56;;;;;;;;;8.00;6.50;;;;;10.80;77.02;100676.34;5035588;28;45265;-78
2021/11/14 05:17:22;;;;;;;;;9.25;8.00;;;;;10.78;77.03;100667.56;5035254;28;45357;-78
2021/11/14 05:19:47;;;;;;;;;6.25;5.25;;;;;10.84;76.63;100674.34;5035353;28;45194;-78
2021/11/14 05:22:13;;;;;;;;;5.00;5.00;;;;;10.84;77.10;100680.53;5038758;28;45222;-78
2021/11/14 05:24:38;;;;;;;;;8.00;5.75;;;;;10.88;76.81;100679.41;5039107;28;45221;-78
2021/11/14 05:27:04;;;;;;;;;7.75;7.00;;;;;10.89;76.80;100672.31;5038761;28;45217;-78
2021/11/14 05:29:29;;;;;;;;;8.50;6.00;;;;;10.87;76.49;100672.41;5038724;28;45219;-77
2021/11/14 05:31:54;;;;;;;;;10.00;9.00;;;;;10.91;76.85;100674.91;5039311;28;45218;-78
2021/11/14 05:34:20;;;;;;;;;5.50;5.50;;;;;10.87;76.29;100668.88;5038210;28;45202;-77
2021/11/14 05:36:45;;;;;;;;;5.50;5.50;;;;;10.84;77.11;100655.75;5038715;28;46084;-77
2021/11/14 05:39:10;;;;;;;;;9.25;7.25;;;;;10.87;77.20;100672.41;5038486;28;45099;-77
2021/11/14 05:41:36;;;;;;;;;6.75;6.00;;;;;10.88;77.05;100673.25;5038576;28;45180;-77
2021/11/14 05:44:01;;;;;;;;;9.00;7.00;;;;;10.83;77.15;100659.34;5038389;28;45276;-77
2021/11/14 05:46:26;;;;;;;;;8.75;7.00;;;;;10.91;77.08;100678.41;5038469;28;46030;-78
2021/11/14 05:48:52;;;;;;;;;8.00;6.25;;;;;10.92;76.98;100677.47;5038186;28;45285;-78
2021/11/14 05:51:17;;;;;;;;;8.25;7.00;;;;;10.85;76.66;100662.78;5038522;28;45193;-78
2021/11/14 05:53:42;;;;;;;;;8.50;6.00;;;;;10.89;77.02;100677.63;5038623;28;45206;-78
2021/11/14 05:56:08;;;;;;;;;7.00;5.50;;;;;10.90;76.69;100683.81;5038269;28;46213;-78
2021/11/14 06:01:09;;;;;;;;;6.75;6.25;;;;;10.91;76.99;100690.84;5038347;28;45271;-78
2021/11/14 06:03:41;;;;;;;;;5.00;5.00;;;;;10.92;77.06;100692.59;5036910;28;45240;-77
2021/11/14 06:06:07;;;;;;;;;5.25;5.25;;;;;10.89;77.30;100685.63;5038140;28;47312;-77
2021/11/14 06:08:33;;;;;;;;;6.25;5.50;;;;;10.90;77.28;100692.63;5036750;28;45198;-77
2021/11/14 06:10:59;;;;;;;;;6.00;5.25;;;;;10.90;77.28;100686.47;5038598;28;45266;-78
2021/11/14 06:13:27;;;;;;;;;6.25;6.25;;;;;10.82;77.46;100677.09;5038167;28;45303;-78
2021/11/14 06:15:53;;;;;;;;;5.50;5.00;;;;;10.92;77.48;100690.78;5038103;28;45554;-77
2021/11/14 06:18:19;;;;;;;;;6.75;6.00;;;;;10.95;77.30;100695.06;5036750;28;45197;-77
2021/11/14 06:20:44;;;;;;;;;5.75;5.50;;;;;10.95;77.51;100687.09;5037895;28;45229;-77
2021/11/14 06:23:10;;;;;;;;;6.00;4.00;;;;;11.01;77.69;100702.72;5038337;28;45273;-78
2021/11/14 06:25:36;;;;;;;;;5.75;5.00;;;;;11.02;77.60;100701.78;5037906;28;46183;-77
2021/11/14 06:28:02;;;;;;;;;5.25;5.00;;;;;11.03;77.50;100701.69;5038167;28;45268;-78
2021/11/14 06:30:28;;;;;;;;;5.00;5.00;;;;;11.10;77.35;100712.84;5037907;28;45191;-78
2021/11/14 06:32:53;;;;;;;;;7.00;5.00;;;;;11.12;77.72;100707.44;5037523;28;45488;-78
2021/11/14 06:35:19;;;;;;;;;6.00;4.25;;;;;11.15;77.79;100709.94;5037719;28;45678;-77
2021/11/14 06:37:44;;;;;;;;;6.00;5.50;;;;;11.12;77.96;100710.97;5037424;28;45274;-78
2021/11/14 06:40:11;;;;;;;;;5.00;3.00;;;;;11.14;78.12;100710.88;5037643;28;45273;-78
2021/11/14 06:42:36;;;;;;;;;5.25;5.00;;;;;11.15;77.68;100721.44;5037471;28;45170;-77
2021/11/14 06:45:03;;;;;;;;;4.25;4.25;;;;;11.15;77.86;100718.75;5037662;28;45315;-78
2021/11/14 06:47:29;;;;;;;;;7.75;5.25;;;;;11.11;77.72;100717.22;5037481;28;45100;-77
2021/11/14 06:49:54;;;;;;;;;7.25;6.00;;;;;11.13;78.22;100718.00;5037555;28;45142;-77
2021/11/14 06:52:22;;;;;;;;;6.50;6.50;;;;;11.12;77.68;100716.28;5037738;28;45236;-77
2021/11/14 06:54:48;;;;;;;;;6.75;6.75;;;;;11.10;77.86;100719.97;5035801;28;47219;-77
2021/11/14 06:57:13;;;;;;;;;6.25;5.50;;;;;11.12;78.20;100720.75;5037493;28;45382;-77
2021/11/14 06:59:39;;;;;;;;;6.25;6.00;;;;;11.12;78.06;100720.75;5037640;28;45309;-77
2021/11/14 07:02:08;;;;;;;;;6.00;6.00;;;;;11.15;78.07;100726.75;5037664;28;45135;-77
2021/11/14 07:04:34;;;;;;;;;6.50;6.50;;;;;11.16;78.55;100738.25;5035919;28;46406;-77
2021/11/14 07:06:59;;;;;;;;;4.00;4.00;;;;;11.13;78.05;100726.00;5037241;28;45112;-77
2021/11/14 07:09:25;;;;;;;;;8.25;6.50;;;;;11.14;77.62;100745.47;5037072;28;45200;-77
2021/11/14 07:11:51;;;;;;;;;4.25;4.25;;;;;11.11;78.02;100735.00;5037369;28;45272;-77
2021/11/14 07:14:16;;;;;;;;;5.00;5.00;;;;;11.09;77.85;100742.19;5036911;28;45182;-77
2021/11/14 07:16:42;;;;;;;;;8.50;5.00;;;;;11.10;78.18;100749.22;5036490;28;45200;-76
2021/11/14 07:19:07;;;;;;;;;7.25;7.25;;;;;11.04;78.09;100734.47;5035574;28;45117;-77
2021/11/14 07:21:33;;;;;;;;;5.00;5.00;;;;;11.05;77.44;100745.00;5037321;28;45167;-78
2021/11/14 07:23:58;;;;;;;;;5.00;5.00;;;;;11.03;78.05;100749.56;5036974;28;46468;-78
2021/11/14 07:26:24;;;;;;;;;5.00;5.00;;;;;11.02;78.17;100754.97;5036948;28;45253;-78
2021/11/14 07:28:49;;;;;;;;;4.00;4.00;;;;;10.96;78.08;100745.53;5037080;28;45196;-78
2021/11/14 07:31:15;;;;;;;;;5.25;5.00;;;;;11.01;78.15;100750.59;5037200;28;45268;-78
2021/11/14 07:33:40;;;;;;;;;4.25;4.25;;;;;10.98;78.48;100746.28;5036864;28;45600;-78
2021/11/14 07:36:06;;;;;;;;;5.75;5.00;;;;;11.01;78.61;100758.56;5035474;28;45263;-77
2021/11/14 07:38:31;;;;;;;;;7.00;6.00;;;;;11.01;78.31;100761.25;5037120;28;45263;-78
2021/11/14 07:40:57;;;;;;;;;4.50;4.00;;;;;10.99;78.49;100760.47;5037108;28;45262;-78
2021/11/14 07:43:22;;;;;;;;;7.75;6.25;;;;;11.03;78.67;100764.66;5035810;28;45209;-77
2021/11/14 07:45:48;;;;;;;;;6.75;5.25;;;;;10.98;78.71;100756.09;5036732;28;45271;-77
2021/11/14 07:48:13;;;;;;;;;6.00;5.25;;;;;11.02;78.42;100766.47;5036495;28;45286;-78
2021/11/14 07:50:40;;;;;;;;;6.25;5.75;;;;;11.02;78.67;100761.16;5036868;28;45186;-78
2021/11/14 07:53:06;;;;;;;;;5.50;5.50;;;;;11.03;78.97;100769.97;5036605;28;45458;-77
2021/11/14 07:55:32;;;;;;;;;4.00;4.00;;;;;10.96;78.99;100760.63;5036636;28;45148;-78
2021/11/14 07:57:59;;;;;;;;;6.25;5.25;;;;;11.07;78.63;100779.53;5036880;28;45198;-78
2021/11/14 08:00:25;;;;;;;;;4.00;4.00;;;;;11.07;78.57;100774.19;5036755;28;45299;-77
2021/11/14 08:02:50;;;;;;;;;6.75;6.75;;;;;11.10;78.36;100781.16;5036427;28;45309;-78
2021/11/14 08:05:17;;;;;;;;;6.50;5.00;;;;;11.05;78.41;100779.59;5036418;28;45292;-78
2021/11/14 08:07:45;;;;;;;;;5.00;5.00;;;;;11.12;78.55;100790.78;5035328;28;45179;-77
2021/11/14 08:10:10;;;;;;;;;7.75;6.00;;;;;11.11;78.57;100791.72;5036423;28;45203;-77
2021/11/14 08:12:36;;;;;;;;;9.00;7.00;;;;;11.15;78.43;100792.44;5036317;28;45508;-77
2021/11/14 08:15:02;;;;;;;;;6.00;6.00;;;;;11.15;78.32;100789.78;5036137;28;45201;-77
2021/11/14 08:17:27;;;;;;;;;6.25;6.25;;;;;11.19;78.57;100789.50;5036265;28;45218;-77
2021/11/14 08:19:55;;;;;;;;;6.00;5.75;;;;;11.19;78.91;100784.19;5036077;28;45135;-77
2021/11/14 08:22:21;;;;;;;;;8.50;5.75;;;;;11.23;78.61;100795.53;5035825;28;45655;-77
2021/11/14 08:24:47;;;;;;;;;8.00;6.50;;;;;11.25;78.73;100791.00;5036274;28;45635;-77
2021/11/14 08:27:13;;;;;;;;;6.00;5.00;;;;;11.29;78.78;100791.69;5035814;28;45356;-77
2021/11/14 08:29:38;;;;;;;;;6.50;6.50;;;;;11.32;78.79;100796.84;5036287;28;45175;-77
2021/11/14 08:32:04;;;;;;;;;13.00;12.25;;;;;11.33;78.74;100798.53;5035882;28;45203;-78
2021/11/14 08:34:29;;;;;;;;;13.00;12.00;;;;;11.36;78.87;100796.59;5036127;28;45155;-77
2021/11/14 08:36:54;;;;;;;;;12.50;10.75;;;;;11.34;78.82;100793.16;5036180;28;45180;-77
2021/11/14 08:39:20;;;;;;;;;8.25;7.00;;;;;11.41;78.90;100804.31;5034816;28;45312;-77
2021/11/14 08:41:45;;;;;;;;;8.00;8.00;;;;;11.42;78.76;100800.72;5036080;28;46205;-77
2021/11/14 08:44:11;;;;;;;;;8.50;6.50;;;;;11.44;78.51;100803.28;5036059;28;45132;-77
2021/11/14 08:46:37;;;;;;;;;7.00;6.25;;;;;11.42;78.40;100795.38;5036190;28;45211;-77
2021/11/14 08:49:03;;;;;;;;;9.00;6.25;;;;;11.47;78.50;100800.44;5035922;28;45168;-77
2021/11/14 08:51:29;;;;;;;;;9.75;8.75;;;;;11.45;78.67;100800.53;5035796;28;46296;-77
2021/11/14 08:54:00;;;;;;;;;8.75;8.00;;;;;11.49;78.16;100804.75;5035705;28;45183;-77
2021/11/14 08:56:28;;;;;;;;;7.50;6.00;;;;;11.52;78.04;100803.72;5039651;28;45171;-77
2021/11/14 08:58:54;;;;;;;;;4.50;4.50;;;;;11.53;77.94;100808.97;5038226;28;45394;-77
2021/11/14 09:01:20;;;;;;;;;5.75;5.75;;;;;11.55;77.87;100812.41;5039498;28;45952;-77
2021/11/14 09:03:45;;;;;;;;;6.50;6.50;;;;;11.57;78.15;100807.84;5038107;28;45307;-77
2021/11/14 09:06:10;;;;;;;;;7.25;6.75;;;;;11.60;78.04;100811.28;5039620;28;45290;-77
2021/11/14 09:08:36;;;;;;;;;7.50;6.00;;;;;11.62;77.71;100817.41;5039365;28;45171;-77
2021/11/14 09:11:01;;;;;;;;;6.00;6.00;;;;;11.61;77.90;100813.84;5039098;28;46099;-78
2021/11/14 09:13:27;;;;;;;;;5.50;5.50;;;;;11.66;77.65;100821.63;5039065;28;45144;-79
2021/11/14 09:15:53;;;;;;;;;4.50;4.25;;;;;11.66;77.39;100825.13;5038995;28;45393;-79
2021/11/14 09:18:18;;;;;;;;;7.75;7.00;;;;;11.66;77.57;100818.94;5038995;28;45271;-78
2021/11/14 09:20:44;;;;;;;;;7.75;5.75;;;;;11.68;77.40;100825.03;5038874;28;45275;-78
2021/11/14 09:23:10;;;;;;;;;7.50;4.75;;;;;11.69;77.72;100826.75;5039033;28;45539;-79
2021/11/14 09:25:39;;;;;;;;;7.00;6.00;;;;;11.69;77.57;100826.75;5039114;28;45526;-79
2021/11/14 09:28:06;;;;;;;;;6.25;6.00;;;;;11.70;77.31;100821.34;5038777;28;45277;-78
2021/11/14 09:30:32;;;;;;;;;6.75;6.00;;;;;11.72;77.51;100823.94;5038329;28;46997;-79
2021/11/14 09:32:57;;;;;;;;;6.00;6.00;;;;;11.79;77.60;100827.13;5038588;28;45238;-79
2021/11/14 09:35:23;;;;;;;;;8.00;6.25;;;;;11.88;77.70;100821.25;5038849;28;45300;-79
2021/11/14 09:37:48;;;;;;;;;10.50;8.00;;;;;11.95;77.77;100820.00;5038927;28;45258;-79
2021/11/14 09:40:14;;;;;;;;;6.75;6.75;;;;;12.05;77.73;100815.84;5038465;28;45261;-79
2021/11/14 09:42:42;;;;;;;;;7.25;5.25;;;;;12.13;77.26;100811.88;5038697;28;45148;-77
2021/11/14 09:45:09;;;;;;;;;6.00;6.00;;;;;12.21;77.01;100817.63;5038798;28;45265;-78
2021/11/14 09:47:37;;;;;;;;;5.00;5.00;;;;;12.23;76.64;100813.09;5038557;28;45587;-82
2021/11/14 09:50:05;;;;;;;;;6.75;6.00;;;;;12.25;76.60;100819.19;5038485;28;45719;-79
2021/11/14 09:52:30;;;;;;;;;4.75;4.75;;;;;12.25;76.68;100817.34;5038062;28;45127;-78
2021/11/14 09:54:56;;;;;;;;;4.50;3.50;;;;;12.29;76.26;100828.72;5038407;28;45108;-78
2021/11/14 09:57:24;;;;;;;;;4.75;4.00;;;;;12.29;76.08;100828.72;5039042;28;45221;-79
2021/11/14 09:59:50;;;;;;;;;3.75;3.50;;;;;12.27;75.94;100830.63;5045531;28;46067;-80
2021/11/14 10:02:18;;;;;;;;;3.50;3.50;;;;;12.25;75.54;100821.84;5045889;28;45124;-79
2021/11/14 10:04:45;;;;;;;;;3.00;3.00;;;;;12.20;75.82;100827.44;5044876;28;45217;-78
2021/11/14 10:07:15;;;;;;;;;3.75;3.00;;;;;12.18;75.88;100828.47;5045579;28;45295;-79
2021/11/14 10:09:46;;;;;;;;;4.00;4.00;;;;;12.18;75.99;100833.81;5040841;28;45190;-79
2021/11/14 10:12:20;;;;;;;;;3.00;3.00;;;;;12.18;75.98;100840.00;5038993;28;45544;-79
2021/11/14 10:14:48;;;;;;;;;4.25;3.00;;;;;12.17;75.90;100829.41;5038016;28;45119;-78
2021/11/14 10:17:20;;;;;;;;;3.00;3.00;;;;;12.23;76.43;100834.41;5037886;28;45247;-78
2021/11/14 10:19:59;;;;;;;;;3.50;3.50;;;;;12.26;76.20;100837.75;5037726;28;45212;-78
2021/11/14 10:22:24;;;;;;;;;3.50;3.50;;;;;12.31;75.94;100832.13;5037798;28;45297;-78
2021/11/14 10:24:51;;;;;;;;;3.75;3.75;;;;;12.34;76.12;100833.78;5037917;28;45192;-79
2021/11/14 10:27:17;;;;;;;;;7.50;7.50;;;;;12.30;75.78;100825.13;5037848;28;45380;-79
2021/11/14 10:29:49;;;;;;;;;6.75;5.50;;;;;12.36;75.94;100826.56;5037153;28;46130;-79
2021/11/14 10:32:16;;;;;;;;;3.75;3.75;;;;;12.39;75.65;100829.03;5037643;28;45662;-77
2021/11/14 10:34:49;;;;;;;;;3.75;3.00;;;;;12.43;75.59;100831.44;5037427;28;45232;-79
2021/11/14 10:37:18;;;;;;;;;4.75;4.00;;;;;12.46;75.62;100829.56;5037480;28;45250;-78
2021/11/14 10:39:44;;;;;;;;;4.00;3.50;;;;;12.48;75.52;100832.97;5037293;28;45520;-77
2021/11/14 10:42:14;;;;;;;;;3.50;3.50;;;;;12.49;75.57;100837.38;5035886;28;45296;-78
2021/11/14 10:45:13;;;;;;;;;5.75;3.50;;;;;12.48;75.17;100839.16;5037569;28;45253;-78
2021/11/14 10:47:38;;;;;;;;;5.25;5.25;;;;;12.46;75.29;100842.88;4975962;28;45233;-84
2021/11/14 10:50:07;;;;;;;;;5.00;4.25;;;;;12.40;75.34;100822.78;4975384;28;45327;-79
2021/11/14 10:52:34;;;;;;;;;5.00;5.00;;;;;12.44;75.29;100842.94;4975821;28;45514;-78
2021/11/14 10:55:05;;;;;;;;;6.25;5.50;;;;;12.43;74.96;100838.59;4975568;28;45176;-78
2021/11/14 10:57:32;;;;;;;;;8.00;6.00;;;;;12.42;75.35;100840.38;4975872;28;45257;-78
2021/11/14 10:59:59;;;;;;;;;5.75;5.75;;;;;12.43;75.44;100839.44;4975236;28;46060;-83
2021/11/14 11:02:26;;;;;;;;;5.50;5.50;;;;;12.44;75.16;100832.28;4975657;28;45572;-77
2021/11/14 11:04:53;;;;;;;;;6.75;5.75;;;;;12.44;75.43;100834.94;4975598;28;45286;-79
2021/11/14 11:07:20;;;;;;;;;6.00;6.00;;;;;12.47;75.66;100834.78;4975548;28;45269;-77
2021/11/14 11:09:53;;;;;;;;;6.25;6.00;;;;;12.51;75.59;100833.66;4975188;28;45334;-78
2021/11/14 11:12:24;;;;;;;;;7.00;6.50;;;;;12.57;75.68;100838.63;4975567;28;45792;-78
2021/11/14 11:15:11;;;;;;;;;5.75;5.75;;;;;12.62;75.52;100833.00;4975394;28;45308;-78
2021/11/14 11:17:42;;;;;;;;;12.00;9.00;;;;;12.71;75.05;100835.16;4974399;28;45488;-78
2021/11/14 11:20:13;;;;;;;;;10.00;8.00;;;;;12.74;75.15;100829.63;4974974;28;45341;-80
2021/11/14 11:23:07;;;;;;;;;6.75;6.25;;;;;12.82;74.86;100831.81;4991430;28;45148;-78